createdAt,value
2023-03-29T00:06:22.958Z,69.84
2023-03-29T00:21:28.749Z,71.06
2023-03-29T00:36:34.381Z,71.82
2023-03-29T00:51:42.879Z,72.23
2023-03-29T01:06:55.328Z,72.44
2023-03-29T01:22:09.949Z,74.54
2023-03-29T01:37:25.016Z,75.36
2023-03-29T01:52:36.637Z,77.99
2023-03-29T02:07:44.971Z,75.67
2023-03-29T02:22:56.305Z,73.03
2023-03-29T02:38:05.413Z,72.61
2023-03-29T02:53:17.170Z,74.72
2023-03-29T03:08:22.863Z,76.44
2023-03-29T03:23:28.936Z,76.32
2023-03-29T03:38:34.855Z,76.39
2023-03-29T03:53:40.512Z,76.12
2023-03-29T04:08:48.194Z,76.52
2023-03-29T04:23:53.900Z,76.64
2023-03-29T04:39:01.646Z,77.17
2023-03-29T04:54:08.160Z,77.11
2023-03-29T05:09:13.842Z,78.35
2023-03-29T05:24:19.483Z,78.60
2023-03-29T05:39:25.174Z,80.00
2023-03-29T05:54:31.010Z,79.04
2023-03-29T06:09:36.548Z,79.21
2023-03-29T06:24:42.592Z,79.46
2023-03-29T06:39:53.481Z,80.42
2023-03-29T06:55:01.963Z,80.71
2023-03-29T07:10:09.206Z,80.41
2023-03-29T07:25:17.565Z,80.90
2023-03-29T07:40:24.854Z,80.14
2023-03-29T07:55:31.403Z,79.01
2023-03-29T08:10:39.716Z,79.24
2023-03-29T08:25:47.400Z,77.99
2023-03-29T08:40:53.688Z,76.83
2023-03-29T08:56:01.449Z,75.64
2023-03-29T09:11:30.411Z,75.12
2023-03-29T09:26:41.738Z,74.46
2023-03-29T09:41:52.547Z,73.66
2023-03-29T09:56:58.357Z,74.92
2023-03-29T10:12:08.494Z,71.02
2023-03-29T10:27:14.611Z,67.24
2023-03-29T10:42:25.321Z,63.71
2023-03-29T10:57:39.989Z,57.86
2023-03-29T11:12:55.578Z,57.22
2023-03-29T11:28:10.686Z,55.51
2023-03-29T11:43:22.038Z,52.30
2023-03-29T11:58:31.564Z,54.33
2023-03-29T12:13:41.956Z,54.44
2023-03-29T12:29:18.155Z,56.90
2023-03-29T12:44:25.771Z,56.30
2023-03-29T12:59:39.924Z,56.59
2023-03-29T13:14:47.838Z,57.49
2023-03-29T13:30:06.192Z,57.93
2023-03-29T13:45:25.025Z,52.62
2023-03-29T14:00:37.327Z,50.74
2023-03-29T14:15:46.934Z,50.69
2023-03-29T14:30:54.233Z,52.39
2023-03-29T14:46:00.344Z,53.52
2023-03-29T15:01:20.773Z,55.01
2023-03-29T15:16:30.990Z,55.60
2023-03-29T15:31:38.636Z,54.27
2023-03-29T15:46:44.741Z,55.52
2023-03-29T16:01:51.044Z,58.06
2023-03-29T16:17:00.686Z,58.15
2023-03-29T16:32:07.276Z,59.55
2023-03-29T16:47:13.714Z,57.89
2023-03-29T17:02:19.390Z,58.78
2023-03-29T17:17:25.362Z,58.29
2023-03-29T17:32:31.656Z,57.71
2023-03-29T17:47:37.751Z,61.92
2023-03-29T18:02:44.535Z,70.63
2023-03-29T18:17:50.651Z,70.08
2023-03-29T18:32:56.815Z,70.82
2023-03-29T18:48:06.342Z,71.87
2023-03-29T19:03:12.431Z,72.79
2023-03-29T19:18:18.347Z,72.77
2023-03-29T19:33:24.176Z,74.41
2023-03-29T19:48:30.041Z,74.57
2023-03-29T20:03:36.558Z,74.54
2023-03-29T20:18:45.130Z,75.76
2023-03-29T20:33:51.107Z,77.18
2023-03-29T20:48:57.227Z,78.59
2023-03-29T21:04:04.050Z,79.30
2023-03-29T21:19:10.245Z,80.27
2023-03-29T21:34:16.113Z,82.02
2023-03-29T21:49:22.142Z,82.76
2023-03-29T22:04:36.658Z,82.72
2023-03-29T22:19:44.127Z,84.07
2023-03-29T22:34:50.188Z,83.85
2023-03-29T22:49:56.186Z,84.16
2023-03-29T23:05:02.183Z,82.97
2023-03-29T23:20:11.241Z,82.62
2023-03-29T23:35:17.145Z,82.71
2023-03-29T23:50:23.308Z,82.58
